createdAt,value
2018-08-16T00:00:28.021Z,18.30
2018-08-16T00:03:06.936Z,18.30
2018-08-16T00:05:42.523Z,18.20
2018-08-16T00:08:20.839Z,18.20
2018-08-16T00:10:57.600Z,18.20
2018-08-16T00:13:33.211Z,18.10
2018-08-16T00:16:10.348Z,18.10
2018-08-16T00:18:48.039Z,18.10
2018-08-16T00:21:24.774Z,18.10
2018-08-16T00:24:00.598Z,18.10
2018-08-16T00:26:36.751Z,18.00
2018-08-16T00:29:13.502Z,18.00
2018-08-16T00:31:49.152Z,18.00
2018-08-16T00:34:26.517Z,17.90
2018-08-16T00:37:02.420Z,17.90
2018-08-16T00:39:38.480Z,17.90
2018-08-16T00:42:15.616Z,17.80
2018-08-16T00:44:55.754Z,17.80
2018-08-16T00:47:33.219Z,17.70
2018-08-16T00:50:11.297Z,17.70
2018-08-16T00:52:44.567Z,17.60
2018-08-16T00:55:24.282Z,17.70
2018-08-16T00:58:05.689Z,17.60
2018-08-16T01:00:41.551Z,17.60
2018-08-16T01:03:20.567Z,17.60
2018-08-16T01:05:56.204Z,17.60
2018-08-16T01:08:32.941Z,17.60
2018-08-16T01:11:08.483Z,17.60
2018-08-16T01:13:45.272Z,17.60
2018-08-16T01:16:21.603Z,17.60
2018-08-16T01:18:58.362Z,17.50
2018-08-16T01:21:35.000Z,17.50
2018-08-16T01:24:10.596Z,17.50
2018-08-16T01:26:47.599Z,17.50
2018-08-16T01:29:23.246Z,17.50
2018-08-16T01:31:58.842Z,17.50
2018-08-16T01:34:36.465Z,17.50
2018-08-16T01:37:13.276Z,17.50
2018-08-16T01:39:50.467Z,17.50
2018-08-16T01:42:26.234Z,17.50
2018-08-16T01:45:01.975Z,17.50
2018-08-16T01:47:38.120Z,17.50
2018-08-16T01:50:15.006Z,17.50
2018-08-16T01:52:51.591Z,17.50
2018-08-16T01:55:28.264Z,17.50
2018-08-16T01:58:05.140Z,17.40
2018-08-16T02:00:40.714Z,17.30
2018-08-16T02:03:16.493Z,17.30
2018-08-16T02:05:53.346Z,17.30
2018-08-16T02:08:28.924Z,17.30
2018-08-16T02:11:05.017Z,17.30
2018-08-16T02:13:44.177Z,17.30
2018-08-16T02:16:21.044Z,17.30
2018-08-16T02:18:58.221Z,17.30
2018-08-16T02:21:35.640Z,17.30
2018-08-16T02:24:12.531Z,17.30
2018-08-16T02:26:49.656Z,17.20
2018-08-16T02:29:25.324Z,17.20
2018-08-16T02:32:00.941Z,17.20
2018-08-16T02:34:36.290Z,17.20
2018-08-16T02:37:15.264Z,17.20
2018-08-16T02:52:57.711Z,17.10
2018-08-16T02:55:28.047Z,17.10
2018-08-16T02:58:04.228Z,17.00
2018-08-16T03:00:41.388Z,16.90
2018-08-16T03:03:17.008Z,17.00
2018-08-16T03:05:53.755Z,17.00
2018-08-16T03:08:35.187Z,17.00
2018-08-16T03:11:10.707Z,17.00
2018-08-16T03:13:47.479Z,16.90
2018-08-16T03:16:23.025Z,16.90
2018-08-16T03:18:59.493Z,16.80
2018-08-16T03:21:35.635Z,16.80
2018-08-16T03:24:11.637Z,16.80
2018-08-16T03:26:47.598Z,16.70
2018-08-16T03:29:24.905Z,16.70
2018-08-16T03:32:01.613Z,16.80
2018-08-16T03:34:37.149Z,16.70
2018-08-16T03:37:12.745Z,16.80
2018-08-16T03:39:49.761Z,17.00
2018-08-16T03:42:26.270Z,17.00
2018-08-16T03:45:02.983Z,17.00
2018-08-16T03:47:38.692Z,17.00
2018-08-16T04:04:00.602Z,17.00
2018-08-16T04:06:36.821Z,16.60
2018-08-16T04:09:15.965Z,16.50
2018-08-16T04:11:57.137Z,16.50
2018-08-16T04:14:34.270Z,16.50
2018-08-16T04:17:10.170Z,16.50
2018-08-16T04:19:49.591Z,16.50
2018-08-16T04:22:27.102Z,16.40
2018-08-16T04:25:04.089Z,16.40
2018-08-16T04:27:41.862Z,16.30
2018-08-16T04:30:19.021Z,16.30
2018-08-16T04:32:56.240Z,16.30
2018-08-16T04:35:32.046Z,16.30
2018-08-16T04:38:08.432Z,16.30
2018-08-16T04:40:47.851Z,16.30
2018-08-16T04:43:24.999Z,16.30
2018-08-16T04:46:02.995Z,16.40
2018-08-16T04:48:38.596Z,16.40
2018-08-16T04:51:16.733Z,16.40
2018-08-16T04:53:54.795Z,16.40
2018-08-16T04:56:31.466Z,16.40
2018-08-16T04:59:07.499Z,16.40
2018-08-16T05:01:43.328Z,16.50
2018-08-16T05:04:19.390Z,16.50
2018-08-16T05:06:56.301Z,16.60
2018-08-16T05:09:34.012Z,16.60
2018-08-16T05:12:11.246Z,16.60
2018-08-16T05:14:47.154Z,16.70
2018-08-16T05:17:22.989Z,16.70
2018-08-16T05:19:59.965Z,16.70
2018-08-16T05:22:39.613Z,16.70
2018-08-16T05:25:19.254Z,16.80
2018-08-16T05:27:56.300Z,16.80
2018-08-16T05:30:32.663Z,16.80
2018-08-16T05:33:10.050Z,16.70
2018-08-16T05:35:47.451Z,16.80
2018-08-16T05:38:23.368Z,16.80
2018-08-16T05:41:01.132Z,16.90
2018-08-16T05:43:38.415Z,16.90
2018-08-16T05:46:14.208Z,16.90
2018-08-16T05:48:51.222Z,16.90
2018-08-16T05:51:30.277Z,17.00
2018-08-16T05:54:05.887Z,17.10
2018-08-16T05:56:43.180Z,17.20
2018-08-16T05:59:20.396Z,17.40
2018-08-16T06:01:56.027Z,17.40
2018-08-16T06:04:31.871Z,17.50
2018-08-16T06:07:09.142Z,17.50
2018-08-16T06:09:46.290Z,17.60
2018-08-16T06:12:22.050Z,17.60
2018-08-16T06:14:59.811Z,17.90
2018-08-16T06:17:37.329Z,18.40
2018-08-16T06:20:13.478Z,19.20
2018-08-16T06:22:52.862Z,20.10
2018-08-16T06:25:30.379Z,20.90
2018-08-16T06:28:07.543Z,21.60
2018-08-16T06:30:44.384Z,22.00
2018-08-16T06:33:19.966Z,22.60
2018-08-16T06:35:56.551Z,23.00
2018-08-16T06:38:34.171Z,23.30
2018-08-16T06:41:14.076Z,24.00
2018-08-16T06:43:51.204Z,24.60
2018-08-16T06:46:28.720Z,25.00
2018-08-16T06:49:08.128Z,25.10
2018-08-16T06:51:44.961Z,25.30
2018-08-16T06:54:21.667Z,25.50
2018-08-16T06:56:57.811Z,25.60
2018-08-16T06:59:34.852Z,26.00
2018-08-16T07:02:12.319Z,26.20
2018-08-16T07:04:48.781Z,26.20
2018-08-16T07:07:26.579Z,26.00
2018-08-16T07:10:03.842Z,26.10
2018-08-16T07:12:41.261Z,25.60
2018-08-16T07:15:17.541Z,25.80
2018-08-16T07:17:54.886Z,26.40
2018-08-16T07:20:32.483Z,26.40
2018-08-16T07:23:09.639Z,26.00
2018-08-16T07:25:46.199Z,26.10
2018-08-16T07:28:22.478Z,25.90
2018-08-16T07:30:58.830Z,25.80
2018-08-16T07:33:38.349Z,26.10
2018-08-16T07:36:14.666Z,26.40
2018-08-16T07:38:52.042Z,26.70
2018-08-16T07:41:29.708Z,27.00
2018-08-16T07:44:07.249Z,27.30
2018-08-16T07:46:43.185Z,27.10
2018-08-16T07:49:20.745Z,27.00
2018-08-16T07:51:57.148Z,26.30
2018-08-16T07:54:32.918Z,26.50
2018-08-16T07:57:10.149Z,26.60
2018-08-16T07:59:49.263Z,27.10
2018-08-16T08:02:26.960Z,27.00
2018-08-16T08:05:03.412Z,27.60
2018-08-16T08:07:39.450Z,27.90
2018-08-16T08:10:16.763Z,27.80
2018-08-16T08:12:53.692Z,27.30
2018-08-16T08:15:31.083Z,27.40
2018-08-16T08:18:08.549Z,27.60
2018-08-16T08:20:44.768Z,28.20
2018-08-16T08:23:22.033Z,28.60
2018-08-16T08:25:58.306Z,28.60
2018-08-16T08:28:35.803Z,28.60
2018-08-16T08:31:12.583Z,28.60
2018-08-16T08:33:49.951Z,28.90
2018-08-16T08:36:36.819Z,29.00
2018-08-16T08:39:14.257Z,29.00
2018-08-16T08:41:50.317Z,28.80
2018-08-16T08:44:28.691Z,28.80
2018-08-16T08:47:05.761Z,28.50
2018-08-16T08:49:43.837Z,29.30
2018-08-16T08:52:20.646Z,29.70
2018-08-16T08:55:07.347Z,29.00
2018-08-16T08:57:55.005Z,28.20
2018-08-16T09:00:27.003Z,27.60
2018-08-16T09:03:04.304Z,27.30
2018-08-16T09:05:40.593Z,27.40
2018-08-16T09:08:18.699Z,27.50
2018-08-16T09:13:51.575Z,27.80
2018-08-16T09:16:34.396Z,27.70
2018-08-16T09:19:12.343Z,28.70
2018-08-16T09:21:49.791Z,28.20
2018-08-16T09:24:26.313Z,28.20
2018-08-16T09:27:05.870Z,28.80
2018-08-16T09:29:47.415Z,29.50
2018-08-16T09:32:34.331Z,29.90
2018-08-16T09:35:14.199Z,30.40
2018-08-16T09:37:51.950Z,31.00
2018-08-16T09:40:32.097Z,31.10
2018-08-16T09:43:11.376Z,31.50
2018-08-16T09:46:56.719Z,31.40
2018-08-16T09:49:33.485Z,31.20
2018-08-16T09:52:09.823Z,30.40
2018-08-16T09:54:47.134Z,29.90
2018-08-16T09:57:23.353Z,30.70
2018-08-16T09:59:59.487Z,30.90
2018-08-16T10:02:36.457Z,31.30
2018-08-16T10:05:14.417Z,31.30
2018-08-16T10:07:52.225Z,31.10
2018-08-16T10:10:28.416Z,31.10
2018-08-16T10:13:05.996Z,31.10
2018-08-16T10:15:42.990Z,30.90
2018-08-16T10:18:20.474Z,31.30
2018-08-16T10:20:56.606Z,31.60
2018-08-16T10:23:34.080Z,31.60
2018-08-16T10:26:09.781Z,31.50
2018-08-16T10:28:45.894Z,31.40
2018-08-16T10:31:23.533Z,31.20
2018-08-16T10:34:00.118Z,31.10
2018-08-16T10:36:37.053Z,31.20
2018-08-16T10:39:17.748Z,31.60
2018-08-16T10:41:55.040Z,31.60
2018-08-16T10:44:32.246Z,31.10
2018-08-16T10:47:08.653Z,31.00
2018-08-16T10:49:46.174Z,30.90
2018-08-16T10:52:23.622Z,30.70
2018-08-16T10:55:03.316Z,30.50
2018-08-16T10:57:40.032Z,30.80
2018-08-16T11:00:14.274Z,31.00
2018-08-16T11:02:53.777Z,31.20
2018-08-16T11:05:24.611Z,31.20
2018-08-16T11:08:01.986Z,30.80
2018-08-16T11:10:39.135Z,30.10
2018-08-16T11:13:10.066Z,29.60
2018-08-16T11:15:42.349Z,29.20
2018-08-16T11:18:19.685Z,29.60
2018-08-16T11:21:01.205Z,30.00
2018-08-16T11:23:40.246Z,30.50
2018-08-16T11:26:16.274Z,30.30
2018-08-16T11:28:52.157Z,29.90
2018-08-16T11:31:30.278Z,29.60
2018-08-16T11:34:07.133Z,29.80
2018-08-16T11:36:46.065Z,30.00
2018-08-16T11:39:22.104Z,30.30
2018-08-16T11:41:58.530Z,30.80
2018-08-16T11:44:35.905Z,30.90
2018-08-16T11:47:12.072Z,30.70
2018-08-16T11:49:45.927Z,30.20
2018-08-16T11:52:15.867Z,30.40
2018-08-16T11:54:47.462Z,30.70
2018-08-16T11:57:18.184Z,31.00
2018-08-16T11:59:48.599Z,31.10
2018-08-16T12:02:19.775Z,31.20
2018-08-16T12:04:51.796Z,30.80
2018-08-16T12:07:27.604Z,30.80
2018-08-16T12:10:03.903Z,30.30
2018-08-16T12:12:39.584Z,29.60
2018-08-16T12:15:20.838Z,30.00
2018-08-16T12:17:57.056Z,30.70
2018-08-16T12:20:33.506Z,30.90
2018-08-16T12:23:09.818Z,30.90
2018-08-16T12:25:46.457Z,31.20
2018-08-16T12:28:25.298Z,31.30
2018-08-16T12:31:02.359Z,31.10
2018-08-16T12:33:38.222Z,30.90
2018-08-16T12:36:14.049Z,30.40
2018-08-16T12:38:51.117Z,29.90
2018-08-16T12:41:27.637Z,30.60
2018-08-16T12:44:04.829Z,30.90
2018-08-16T12:46:41.156Z,30.80
2018-08-16T12:49:18.514Z,30.70
2018-08-16T12:51:55.728Z,30.50
2018-08-16T12:54:33.384Z,30.80
2018-08-16T12:57:10.679Z,31.10
2018-08-16T12:59:47.858Z,30.80
2018-08-16T13:02:28.697Z,30.90
2018-08-16T13:05:10.569Z,31.10
2018-08-16T13:07:51.990Z,31.00
2018-08-16T13:10:26.947Z,31.20
2018-08-16T13:13:03.009Z,31.20
2018-08-16T13:15:41.022Z,31.40
2018-08-16T13:18:18.384Z,31.60
2018-08-16T13:20:54.596Z,31.50
2018-08-16T13:23:30.779Z,31.40
2018-08-16T13:26:08.454Z,31.50
2018-08-16T13:28:44.260Z,31.90
2018-08-16T13:31:20.477Z,31.70
2018-08-16T13:33:57.631Z,31.30
2018-08-16T13:36:33.648Z,31.20
2018-08-16T13:39:10.669Z,31.30
2018-08-16T13:41:51.970Z,31.40
2018-08-16T13:44:28.334Z,31.50
2018-08-16T13:47:05.526Z,31.70
2018-08-16T13:49:42.833Z,31.70
2018-08-16T13:52:21.775Z,31.70
2018-08-16T13:54:59.579Z,31.60
2018-08-16T13:57:38.935Z,31.80
2018-08-16T14:00:16.269Z,32.10
2018-08-16T14:02:55.655Z,31.90
2018-08-16T14:05:32.759Z,31.80
2018-08-16T14:08:08.629Z,31.80
2018-08-16T14:10:51.739Z,31.80
2018-08-16T14:13:28.879Z,31.90
2018-08-16T14:16:08.771Z,31.80
2018-08-16T14:18:45.625Z,31.40
2018-08-16T14:21:21.741Z,31.60
2018-08-16T14:23:57.519Z,31.40
2018-08-16T14:26:34.260Z,31.30
2018-08-16T14:29:10.574Z,31.30
2018-08-16T14:31:47.870Z,31.60
2018-08-16T14:34:24.839Z,31.20
2018-08-16T14:37:02.261Z,31.50
2018-08-16T14:39:41.950Z,31.40
2018-08-16T14:42:19.272Z,30.90
2018-08-16T14:44:57.402Z,31.30
2018-08-16T14:47:35.509Z,31.50
2018-08-16T14:50:12.495Z,31.40
2018-08-16T14:52:50.460Z,31.60
2018-08-16T14:55:28.866Z,31.50
2018-08-16T14:58:08.565Z,31.30
2018-08-16T15:00:46.066Z,31.40
2018-08-16T15:03:23.434Z,31.20
2018-08-16T15:06:04.556Z,31.00
2018-08-16T15:08:42.212Z,31.30
2018-08-16T15:11:18.126Z,31.70
2018-08-16T15:14:00.268Z,31.60
2018-08-16T15:16:38.148Z,31.80
2018-08-16T15:19:15.969Z,31.80
2018-08-16T15:21:52.273Z,31.40
2018-08-16T15:24:31.280Z,30.90
2018-08-16T15:27:07.154Z,30.40
2018-08-16T15:29:44.808Z,30.00
2018-08-16T15:32:24.571Z,29.40
2018-08-16T15:35:04.139Z,29.20
2018-08-16T15:37:40.686Z,29.30
2018-08-16T15:40:20.268Z,29.30
2018-08-16T15:42:57.384Z,29.40
2018-08-16T15:45:34.099Z,29.40
2018-08-16T15:48:14.796Z,29.20
2018-08-16T15:50:52.424Z,29.20
2018-08-16T15:53:29.822Z,29.10
2018-08-16T15:56:07.102Z,29.00
2018-08-16T15:58:42.937Z,29.00
2018-08-16T16:01:19.887Z,28.90
2018-08-16T16:03:57.303Z,28.80
2018-08-16T16:06:34.757Z,28.70
2018-08-16T16:09:12.380Z,28.70
2018-08-16T16:11:48.462Z,28.80
2018-08-16T16:14:26.032Z,28.70
2018-08-16T16:17:03.057Z,28.70
2018-08-16T16:19:40.114Z,28.50
2018-08-16T16:22:17.908Z,28.50
2018-08-16T16:24:55.698Z,28.50
2018-08-16T16:27:33.134Z,28.50
2018-08-16T16:30:10.716Z,28.50
2018-08-16T16:32:49.337Z,28.50
2018-08-16T16:35:26.343Z,28.40
2018-08-16T16:38:02.237Z,28.20
2018-08-16T16:40:40.132Z,28.20
2018-08-16T16:43:20.323Z,28.30
2018-08-16T16:45:57.966Z,28.40
2018-08-16T16:48:35.058Z,28.30
2018-08-16T16:51:12.209Z,28.20
2018-08-16T16:53:49.793Z,28.10
2018-08-16T16:56:27.151Z,28.10
2018-08-16T16:59:04.560Z,28.20
2018-08-16T17:01:43.146Z,28.10
2018-08-16T17:04:19.808Z,28.00
2018-08-16T17:06:57.171Z,27.90
2018-08-16T17:09:34.021Z,27.90
2018-08-16T17:12:11.251Z,27.80
2018-08-16T17:14:48.488Z,27.70
2018-08-16T17:17:26.204Z,27.60
2018-08-16T17:20:05.501Z,27.70
2018-08-16T17:22:42.599Z,27.50
2018-08-16T17:25:20.285Z,27.40
2018-08-16T17:27:57.554Z,27.20
2018-08-16T17:30:34.984Z,27.10
2018-08-16T17:33:13.401Z,27.20
2018-08-16T17:35:49.704Z,27.20
2018-08-16T17:38:26.771Z,27.20
2018-08-16T17:41:03.423Z,27.10
2018-08-16T17:43:40.508Z,27.00
2018-08-16T17:46:22.050Z,26.90
2018-08-16T17:49:00.132Z,26.80
2018-08-16T17:51:36.202Z,26.70
2018-08-16T17:54:12.431Z,26.60
2018-08-16T17:56:50.188Z,26.60
2018-08-16T17:59:27.632Z,26.50
2018-08-16T18:02:04.242Z,26.40
2018-08-16T18:04:42.143Z,26.40
2018-08-16T18:07:19.672Z,26.30
2018-08-16T18:09:57.175Z,26.20
2018-08-16T18:12:33.784Z,26.20
2018-08-16T18:15:12.756Z,26.10
2018-08-16T18:17:49.998Z,26.00
2018-08-16T18:20:27.497Z,25.90
2018-08-16T18:23:03.487Z,25.80
2018-08-16T18:25:41.264Z,25.80
2018-08-16T18:28:18.709Z,25.70
2018-08-16T18:30:55.041Z,25.60
2018-08-16T18:33:32.742Z,25.60
2018-08-16T18:36:08.845Z,25.60
2018-08-16T18:38:44.116Z,25.50
2018-08-16T18:41:20.607Z,25.40
2018-08-16T18:44:00.308Z,25.30
2018-08-16T18:46:40.031Z,25.30
2018-08-16T18:49:17.873Z,25.20
2018-08-16T18:51:53.721Z,25.10
2018-08-16T18:54:31.716Z,25.00
2018-08-16T18:57:08.752Z,25.00
2018-08-16T18:59:45.586Z,24.90
2018-08-16T19:02:23.630Z,24.90
2018-08-16T19:05:03.289Z,24.80
2018-08-16T19:07:42.710Z,24.70
2018-08-16T19:10:20.802Z,24.60
2018-08-16T19:13:01.709Z,24.50
2018-08-16T19:15:38.942Z,24.50
2018-08-16T19:18:15.163Z,24.40
2018-08-16T19:20:52.887Z,24.40
2018-08-16T19:23:29.172Z,24.30
2018-08-16T19:26:05.075Z,24.20
2018-08-16T19:28:42.534Z,24.20
2018-08-16T19:31:19.942Z,24.20
2018-08-16T19:33:56.013Z,24.10
2018-08-16T19:36:32.410Z,24.10
2018-08-16T19:39:12.014Z,24.00
2018-08-16T19:41:51.212Z,23.90
2018-08-16T19:44:27.901Z,23.90
2018-08-16T19:47:07.161Z,23.80
2018-08-16T19:49:44.533Z,23.80
2018-08-16T19:52:20.570Z,23.70
2018-08-16T19:54:58.159Z,23.70
2018-08-16T19:57:34.721Z,23.70
2018-08-16T20:00:13.908Z,23.60
2018-08-16T20:02:53.731Z,23.60
2018-08-16T20:05:31.043Z,23.50
2018-08-16T20:08:07.446Z,23.50
2018-08-16T20:10:45.151Z,23.40
2018-08-16T20:13:24.398Z,23.40
2018-08-16T20:16:02.326Z,23.30
2018-08-16T20:18:44.640Z,23.20
2018-08-16T20:21:21.097Z,23.20
2018-08-16T20:24:00.562Z,23.20
2018-08-16T20:26:38.701Z,23.10
2018-08-16T20:29:14.719Z,23.10
2018-08-16T20:31:51.864Z,23.00
2018-08-16T20:34:29.290Z,22.90
2018-08-16T20:37:05.289Z,22.90
2018-08-16T20:39:41.988Z,22.90
2018-08-16T20:42:19.864Z,22.80
2018-08-16T20:44:57.055Z,22.70
2018-08-16T20:47:32.642Z,22.70
2018-08-16T20:50:10.301Z,22.60
2018-08-16T20:52:46.698Z,22.60
2018-08-16T20:55:26.098Z,22.50
2018-08-16T20:58:05.290Z,22.50
2018-08-16T21:00:41.091Z,22.40
2018-08-16T21:03:18.307Z,22.40
2018-08-16T21:05:55.778Z,22.40
2018-08-16T21:08:31.564Z,22.30
2018-08-16T21:11:05.878Z,22.30
2018-08-16T21:13:41.768Z,22.20
2018-08-16T21:16:19.066Z,22.10
2018-08-16T21:18:55.836Z,22.10
2018-08-16T21:21:33.085Z,22.10
2018-08-16T21:24:09.393Z,22.00
2018-08-16T21:26:45.330Z,22.00
2018-08-16T21:29:21.458Z,21.90
2018-08-16T21:31:58.047Z,21.90
2018-08-16T21:34:36.026Z,21.80
2018-08-16T21:37:13.957Z,21.80
2018-08-16T21:39:51.158Z,21.70
2018-08-16T21:42:28.421Z,21.70
2018-08-16T21:45:05.714Z,21.70
2018-08-16T21:47:41.635Z,21.70
2018-08-16T21:50:18.919Z,21.70
2018-08-16T21:52:56.408Z,21.60
2018-08-16T21:55:32.530Z,21.60
2018-08-16T21:58:09.569Z,21.60
2018-08-16T22:00:57.275Z,21.60
2018-08-16T22:03:34.413Z,21.60
2018-08-16T22:06:11.449Z,21.50
2018-08-16T22:08:50.600Z,21.50
2018-08-16T22:11:26.855Z,21.50
2018-08-16T22:14:03.812Z,21.40
2018-08-16T22:16:41.884Z,21.40
2018-08-16T22:19:18.224Z,21.40
2018-08-16T22:21:55.709Z,21.40
2018-08-16T22:24:31.555Z,21.30
2018-08-16T22:27:11.144Z,21.30
2018-08-16T22:29:47.583Z,21.20
2018-08-16T22:32:24.379Z,21.20
2018-08-16T22:35:02.105Z,21.20
2018-08-16T22:37:41.608Z,21.20
2018-08-16T22:40:19.189Z,21.10
2018-08-16T22:42:54.974Z,21.10
2018-08-16T22:45:31.284Z,21.10
2018-08-16T22:48:08.754Z,21.00
2018-08-16T22:50:45.589Z,20.90
2018-08-16T22:53:21.669Z,20.90
2018-08-16T22:55:57.956Z,20.90
2018-08-16T22:58:34.115Z,20.90
2018-08-16T23:01:10.346Z,20.80
2018-08-16T23:03:47.438Z,20.80
2018-08-16T23:06:23.313Z,20.80
2018-08-16T23:09:01.209Z,20.80
2018-08-16T23:11:37.037Z,20.80
2018-08-16T23:14:12.788Z,20.70
2018-08-16T23:16:48.803Z,20.60
2018-08-16T23:19:24.890Z,20.60
2018-08-16T23:22:01.750Z,20.50
2018-08-16T23:24:37.176Z,20.50
2018-08-16T23:27:13.873Z,20.50
2018-08-16T23:29:51.313Z,20.50
2018-08-16T23:32:27.492Z,20.60
2018-08-16T23:35:03.219Z,20.60
2018-08-16T23:37:39.970Z,20.60
2018-08-16T23:40:17.079Z,20.50
2018-08-16T23:42:53.509Z,20.60
2018-08-16T23:45:30.378Z,20.60
2018-08-16T23:48:17.073Z,20.60
2018-08-16T23:50:53.578Z,20.50
2018-08-16T23:53:29.533Z,20.50
2018-08-16T23:56:06.085Z,20.50
2018-08-16T23:58:41.950Z,20.50
